sensor_id;sensor_type;location;lat;lon;timestamp;temperature;humidity
24338;DHT22;12457;50.832;4.346;2023-07-20T00:01:23;18.00;99.90
24338;DHT22;12457;50.832;4.346;2023-07-20T00:03:48;18.00;99.90
24338;DHT22;12457;50.832;4.346;2023-07-20T00:06:24;18.00;99.90
24338;DHT22;12457;50.832;4.346;2023-07-20T00:08:50;18.00;99.90
24338;DHT22;12457;50.832;4.346;2023-07-20T00:11:16;18.10;99.90
24338;DHT22;12457;50.832;4.346;2023-07-20T00:13:42;18.10;99.90
24338;DHT22;12457;50.832;4.346;2023-07-20T00:16:08;18.10;99.90
24338;DHT22;12457;50.832;4.346;2023-07-20T00:18:34;18.00;99.90
24338;DHT22;12457;50.832;4.346;2023-07-20T00:20:59;18.00;99.90
24338;DHT22;12457;50.832;4.346;2023-07-20T00:23:26;18.10;99.90
24338;DHT22;12457;50.832;4.346;2023-07-20T00:25:51;18.00;99.90
24338;DHT22;12457;50.832;4.346;2023-07-20T00:28:17;17.90;99.90
24338;DHT22;12457;50.832;4.346;2023-07-20T00:30:43;17.90;99.90
24338;DHT22;12457;50.832;4.346;2023-07-20T00:33:12;17.90;99.90
24338;DHT22;12457;50.832;4.346;2023-07-20T00:35:38;17.90;99.90
24338;DHT22;12457;50.832;4.346;2023-07-20T00:38:04;18.00;99.90
24338;DHT22;12457;50.832;4.346;2023-07-20T00:40:40;17.90;99.90
24338;DHT22;12457;50.832;4.346;2023-07-20T00:43:07;17.80;99.90
24338;DHT22;12457;50.832;4.346;2023-07-20T00:45:34;17.70;99.90
24338;DHT22;12457;50.832;4.346;2023-07-20T00:48:01;17.70;99.90
24338;DHT22;12457;50.832;4.346;2023-07-20T00:50:28;17.60;99.90
24338;DHT22;12457;50.832;4.346;2023-07-20T00:52:55;17.60;99.90
24338;DHT22;12457;50.832;4.346;2023-07-20T00:55:21;17.60;99.90
24338;DHT22;12457;50.832;4.346;2023-07-20T00:57:47;17.70;99.90
24338;DHT22;12457;50.832;4.346;2023-07-20T01:00:14;17.80;99.90
24338;DHT22;12457;50.832;4.346;2023-07-20T01:02:40;17.90;99.90
24338;DHT22;12457;50.832;4.346;2023-07-20T01:05:06;17.90;99.90
24338;DHT22;12457;50.832;4.346;2023-07-20T01:07:37;17.80;99.90
24338;DHT22;12457;50.832;4.346;2023-07-20T01:10:12;17.90;99.90
24338;DHT22;12457;50.832;4.346;2023-07-20T01:12:42;17.90;99.90
24338;DHT22;12457;50.832;4.346;2023-07-20T01:15:09;17.90;99.90
24338;DHT22;12457;50.832;4.346;2023-07-20T01:17:35;17.90;99.90
24338;DHT22;12457;50.832;4.346;2023-07-20T01:20:02;18.00;99.90
24338;DHT22;12457;50.832;4.346;2023-07-20T01:23:05;18.00;99.90
24338;DHT22;12457;50.832;4.346;2023-07-20T01:31:44;17.80;99.90
24338;DHT22;12457;50.832;4.346;2023-07-20T01:34:12;17.80;99.90
24338;DHT22;12457;50.832;4.346;2023-07-20T01:36:42;17.80;99.90
24338;DHT22;12457;50.832;4.346;2023-07-20T01:39:09;17.80;99.90
24338;DHT22;12457;50.832;4.346;2023-07-20T01:41:34;17.80;99.90
24338;DHT22;12457;50.832;4.346;2023-07-20T01:44:04;17.80;99.90
24338;DHT22;12457;50.832;4.346;2023-07-20T01:46:30;17.90;99.90
24338;DHT22;12457;50.832;4.346;2023-07-20T01:48:55;17.90;99.90
24338;DHT22;12457;50.832;4.346;2023-07-20T01:51:21;17.90;99.90
24338;DHT22;12457;50.832;4.346;2023-07-20T01:53:47;17.90;99.90
24338;DHT22;12457;50.832;4.346;2023-07-20T01:56:13;17.80;99.90
24338;DHT22;12457;50.832;4.346;2023-07-20T01:58:38;17.80;99.90
24338;DHT22;12457;50.832;4.346;2023-07-20T02:01:04;17.70;99.90
24338;DHT22;12457;50.832;4.346;2023-07-20T02:03:30;17.70;99.90
24338;DHT22;12457;50.832;4.346;2023-07-20T02:05:55;17.70;99.90
24338;DHT22;12457;50.832;4.346;2023-07-20T02:08:22;17.70;99.90
24338;DHT22;12457;50.832;4.346;2023-07-20T02:10:49;17.70;99.90
24338;DHT22;12457;50.832;4.346;2023-07-20T02:13:15;17.70;99.90
24338;DHT22;12457;50.832;4.346;2023-07-20T02:15:43;17.60;99.90
24338;DHT22;12457;50.832;4.346;2023-07-20T02:18:10;17.60;99.90
24338;DHT22;12457;50.832;4.346;2023-07-20T02:20:35;17.50;99.90
24338;DHT22;12457;50.832;4.346;2023-07-20T02:23:01;17.50;99.90
24338;DHT22;12457;50.832;4.346;2023-07-20T02:25:27;17.50;99.90
24338;DHT22;12457;50.832;4.346;2023-07-20T02:27:52;17.30;99.90
24338;DHT22;12457;50.832;4.346;2023-07-20T02:30:18;17.30;99.90
24338;DHT22;12457;50.832;4.346;2023-07-20T02:32:44;17.20;99.90
24338;DHT22;12457;50.832;4.346;2023-07-20T02:35:11;17.30;99.90
24338;DHT22;12457;50.832;4.346;2023-07-20T02:37:37;17.30;99.90
24338;DHT22;12457;50.832;4.346;2023-07-20T02:40:03;17.20;99.90
24338;DHT22;12457;50.832;4.346;2023-07-20T02:42:30;17.20;99.90
24338;DHT22;12457;50.832;4.346;2023-07-20T02:44:56;17.10;99.90
24338;DHT22;12457;50.832;4.346;2023-07-20T02:47:21;17.10;99.90
24338;DHT22;12457;50.832;4.346;2023-07-20T02:49:47;17.10;99.90
24338;DHT22;12457;50.832;4.346;2023-07-20T02:52:14;17.10;99.90
24338;DHT22;12457;50.832;4.346;2023-07-20T02:54:39;17.20;99.90
24338;DHT22;12457;50.832;4.346;2023-07-20T02:57:05;17.10;99.90
24338;DHT22;12457;50.832;4.346;2023-07-20T02:59:31;17.10;99.90
24338;DHT22;12457;50.832;4.346;2023-07-20T03:01:57;17.00;99.90
24338;DHT22;12457;50.832;4.346;2023-07-20T03:04:25;17.10;99.90
24338;DHT22;12457;50.832;4.346;2023-07-20T03:06:51;17.20;99.90
24338;DHT22;12457;50.832;4.346;2023-07-20T03:09:16;17.30;99.90
24338;DHT22;12457;50.832;4.346;2023-07-20T03:11:42;17.30;99.90
24338;DHT22;12457;50.832;4.346;2023-07-20T03:14:08;17.40;99.90
24338;DHT22;12457;50.832;4.346;2023-07-20T03:16:33;17.30;99.90
24338;DHT22;12457;50.832;4.346;2023-07-20T03:18:59;17.30;99.90
24338;DHT22;12457;50.832;4.346;2023-07-20T03:21:26;17.20;99.90
24338;DHT22;12457;50.832;4.346;2023-07-20T03:23:52;17.10;99.90
24338;DHT22;12457;50.832;4.346;2023-07-20T03:26:17;17.00;99.90
24338;DHT22;12457;50.832;4.346;2023-07-20T03:28:43;16.90;99.90
24338;DHT22;12457;50.832;4.346;2023-07-20T03:31:09;16.90;99.90
24338;DHT22;12457;50.832;4.346;2023-07-20T03:33:35;17.00;99.90
24338;DHT22;12457;50.832;4.346;2023-07-20T03:36:00;17.10;99.90
24338;DHT22;12457;50.832;4.346;2023-07-20T03:38:26;17.10;99.90
24338;DHT22;12457;50.832;4.346;2023-07-20T03:40:57;17.10;99.90
24338;DHT22;12457;50.832;4.346;2023-07-20T03:43:24;17.10;99.90
24338;DHT22;12457;50.832;4.346;2023-07-20T03:45:51;17.10;99.90
24338;DHT22;12457;50.832;4.346;2023-07-20T03:48:24;17.10;99.90
24338;DHT22;12457;50.832;4.346;2023-07-20T03:50:51;17.10;99.90
24338;DHT22;12457;50.832;4.346;2023-07-20T03:53:17;17.10;99.90
24338;DHT22;12457;50.832;4.346;2023-07-20T03:55:51;17.10;99.90
24338;DHT22;12457;50.832;4.346;2023-07-20T03:58:17;17.10;99.90
24338;DHT22;12457;50.832;4.346;2023-07-20T04:00:49;17.20;99.90
24338;DHT22;12457;50.832;4.346;2023-07-20T04:03:16;17.30;99.90
24338;DHT22;12457;50.832;4.346;2023-07-20T04:05:43;17.40;99.90
24338;DHT22;12457;50.832;4.346;2023-07-20T04:08:09;17.40;99.90
24338;DHT22;12457;50.832;4.346;2023-07-20T04:10:36;17.50;99.90
24338;DHT22;12457;50.832;4.346;2023-07-20T04:13:03;17.40;99.90
24338;DHT22;12457;50.832;4.346;2023-07-20T04:15:29;17.30;99.90
24338;DHT22;12457;50.832;4.346;2023-07-20T04:17:55;17.10;99.90
24338;DHT22;12457;50.832;4.346;2023-07-20T04:20:22;17.20;99.90
24338;DHT22;12457;50.832;4.346;2023-07-20T04:22:48;17.30;99.90
24338;DHT22;12457;50.832;4.346;2023-07-20T04:25:14;17.30;99.90
24338;DHT22;12457;50.832;4.346;2023-07-20T04:27:39;17.40;99.90
24338;DHT22;12457;50.832;4.346;2023-07-20T04:30:07;17.40;99.90
24338;DHT22;12457;50.832;4.346;2023-07-20T04:32:33;17.20;99.90
24338;DHT22;12457;50.832;4.346;2023-07-20T04:34:59;17.20;99.90
24338;DHT22;12457;50.832;4.346;2023-07-20T04:37:25;17.30;99.90
24338;DHT22;12457;50.832;4.346;2023-07-20T04:39:51;17.20;99.90
24338;DHT22;12457;50.832;4.346;2023-07-20T04:42:17;17.30;99.90
24338;DHT22;12457;50.832;4.346;2023-07-20T04:44:43;17.30;99.90
24338;DHT22;12457;50.832;4.346;2023-07-20T04:47:09;17.40;99.90
24338;DHT22;12457;50.832;4.346;2023-07-20T04:49:34;17.50;99.90
24338;DHT22;12457;50.832;4.346;2023-07-20T04:52:01;17.60;99.90
24338;DHT22;12457;50.832;4.346;2023-07-20T04:54:28;17.60;99.90
24338;DHT22;12457;50.832;4.346;2023-07-20T04:56:54;17.50;99.90
24338;DHT22;12457;50.832;4.346;2023-07-20T04:59:19;17.60;99.90
24338;DHT22;12457;50.832;4.346;2023-07-20T05:01:45;17.60;99.90
24338;DHT22;12457;50.832;4.346;2023-07-20T05:04:11;17.60;99.90
24338;DHT22;12457;50.832;4.346;2023-07-20T05:06:36;17.50;99.90
24338;DHT22;12457;50.832;4.346;2023-07-20T05:09:04;17.40;99.90
24338;DHT22;12457;50.832;4.346;2023-07-20T05:11:33;17.50;99.90
24338;DHT22;12457;50.832;4.346;2023-07-20T05:13:59;17.50;99.90
24338;DHT22;12457;50.832;4.346;2023-07-20T05:16:25;17.50;99.90
24338;DHT22;12457;50.832;4.346;2023-07-20T05:18:50;17.60;99.90
24338;DHT22;12457;50.832;4.346;2023-07-20T05:21:16;17.50;99.90
24338;DHT22;12457;50.832;4.346;2023-07-20T05:23:42;17.50;99.90
24338;DHT22;12457;50.832;4.346;2023-07-20T05:26:08;17.50;99.90
24338;DHT22;12457;50.832;4.346;2023-07-20T05:28:34;17.40;99.90
24338;DHT22;12457;50.832;4.346;2023-07-20T05:31:02;17.50;99.90
24338;DHT22;12457;50.832;4.346;2023-07-20T05:33:28;17.70;99.90
24338;DHT22;12457;50.832;4.346;2023-07-20T05:35:56;17.80;99.90
24338;DHT22;12457;50.832;4.346;2023-07-20T05:38:22;17.90;99.90
24338;DHT22;12457;50.832;4.346;2023-07-20T05:40:48;17.90;99.90
24338;DHT22;12457;50.832;4.346;2023-07-20T05:43:13;18.00;99.90
24338;DHT22;12457;50.832;4.346;2023-07-20T05:45:43;18.00;99.90
24338;DHT22;12457;50.832;4.346;2023-07-20T05:48:10;18.10;99.90
24338;DHT22;12457;50.832;4.346;2023-07-20T05:50:37;18.00;99.90
24338;DHT22;12457;50.832;4.346;2023-07-20T05:53:03;17.90;99.90
24338;DHT22;12457;50.832;4.346;2023-07-20T05:55:29;17.90;99.90
24338;DHT22;12457;50.832;4.346;2023-07-20T05:57:54;17.70;99.90
24338;DHT22;12457;50.832;4.346;2023-07-20T06:00:21;17.60;99.90
24338;DHT22;12457;50.832;4.346;2023-07-20T06:02:52;17.70;99.90
24338;DHT22;12457;50.832;4.346;2023-07-20T06:05:19;17.80;99.90
24338;DHT22;12457;50.832;4.346;2023-07-20T06:07:45;17.90;99.90
24338;DHT22;12457;50.832;4.346;2023-07-20T06:10:11;17.90;99.90
24338;DHT22;12457;50.832;4.346;2023-07-20T06:12:36;17.90;99.90
24338;DHT22;12457;50.832;4.346;2023-07-20T06:15:03;17.90;99.90
24338;DHT22;12457;50.832;4.346;2023-07-20T06:17:29;17.80;99.90
24338;DHT22;12457;50.832;4.346;2023-07-20T06:19:55;17.80;99.90
24338;DHT22;12457;50.832;4.346;2023-07-20T06:22:21;17.70;99.90
24338;DHT22;12457;50.832;4.346;2023-07-20T06:24:46;17.70;99.90
24338;DHT22;12457;50.832;4.346;2023-07-20T06:27:12;17.80;99.90
24338;DHT22;12457;50.832;4.346;2023-07-20T06:29:38;18.00;99.90
24338;DHT22;12457;50.832;4.346;2023-07-20T06:32:04;18.10;99.90
24338;DHT22;12457;50.832;4.346;2023-07-20T06:34:30;18.10;99.90
24338;DHT22;12457;50.832;4.346;2023-07-20T06:36:56;18.00;99.90
24338;DHT22;12457;50.832;4.346;2023-07-20T06:39:22;18.00;99.90
24338;DHT22;12457;50.832;4.346;2023-07-20T06:41:48;18.20;99.90
24338;DHT22;12457;50.832;4.346;2023-07-20T06:44:13;18.40;99.90
24338;DHT22;12457;50.832;4.346;2023-07-20T06:46:39;18.80;99.90
24338;DHT22;12457;50.832;4.346;2023-07-20T06:49:08;19.00;99.90
24338;DHT22;12457;50.832;4.346;2023-07-20T06:51:33;19.10;99.90
24338;DHT22;12457;50.832;4.346;2023-07-20T06:53:59;19.10;99.90
24338;DHT22;12457;50.832;4.346;2023-07-20T06:56:25;19.30;99.90
24338;DHT22;12457;50.832;4.346;2023-07-20T06:58:50;19.60;99.90
24338;DHT22;12457;50.832;4.346;2023-07-20T07:01:16;19.90;99.90
24338;DHT22;12457;50.832;4.346;2023-07-20T07:03:42;20.20;99.90
24338;DHT22;12457;50.832;4.346;2023-07-20T07:06:09;20.40;99.90
24338;DHT22;12457;50.832;4.346;2023-07-20T07:08:35;20.80;99.90
24338;DHT22;12457;50.832;4.346;2023-07-20T07:11:01;21.10;99.90
24338;DHT22;12457;50.832;4.346;2023-07-20T07:13:27;21.50;99.90
24338;DHT22;12457;50.832;4.346;2023-07-20T07:15:53;22.10;99.90
24338;DHT22;12457;50.832;4.346;2023-07-20T07:18:19;22.30;99.90
24338;DHT22;12457;50.832;4.346;2023-07-20T07:20:54;22.40;99.90
24338;DHT22;12457;50.832;4.346;2023-07-20T07:23:20;22.30;99.90
24338;DHT22;12457;50.832;4.346;2023-07-20T07:25:46;22.30;99.90
24338;DHT22;12457;50.832;4.346;2023-07-20T07:28:12;22.30;99.90
24338;DHT22;12457;50.832;4.346;2023-07-20T07:30:38;23.10;99.90
24338;DHT22;12457;50.832;4.346;2023-07-20T07:33:04;22.80;99.90
24338;DHT22;12457;50.832;4.346;2023-07-20T07:35:29;22.90;99.90
24338;DHT22;12457;50.832;4.346;2023-07-20T07:37:55;23.10;99.90
24338;DHT22;12457;50.832;4.346;2023-07-20T07:40:21;23.10;99.90
24338;DHT22;12457;50.832;4.346;2023-07-20T07:42:46;22.90;99.90
24338;DHT22;12457;50.832;4.346;2023-07-20T07:45:13;22.40;99.90
24338;DHT22;12457;50.832;4.346;2023-07-20T07:47:39;22.50;99.90
24338;DHT22;12457;50.832;4.346;2023-07-20T07:50:05;22.60;99.90
24338;DHT22;12457;50.832;4.346;2023-07-20T07:52:31;23.10;99.90
24338;DHT22;12457;50.832;4.346;2023-07-20T07:54:57;24.10;99.90
24338;DHT22;12457;50.832;4.346;2023-07-20T07:57:23;25.30;99.90
24338;DHT22;12457;50.832;4.346;2023-07-20T07:59:49;25.20;99.90
24338;DHT22;12457;50.832;4.346;2023-07-20T08:02:15;25.50;99.90
24338;DHT22;12457;50.832;4.346;2023-07-20T08:04:41;25.20;99.90
24338;DHT22;12457;50.832;4.346;2023-07-20T08:07:07;25.20;99.90
24338;DHT22;12457;50.832;4.346;2023-07-20T08:09:32;25.00;99.90
24338;DHT22;12457;50.832;4.346;2023-07-20T08:11:58;24.60;99.90
24338;DHT22;12457;50.832;4.346;2023-07-20T08:14:25;24.70;99.90
24338;DHT22;12457;50.832;4.346;2023-07-20T08:16:50;24.50;99.90
24338;DHT22;12457;50.832;4.346;2023-07-20T08:19:17;24.50;99.90
24338;DHT22;12457;50.832;4.346;2023-07-20T08:21:42;24.60;99.90
24338;DHT22;12457;50.832;4.346;2023-07-20T08:24:08;24.20;99.90
24338;DHT22;12457;50.832;4.346;2023-07-20T08:26:34;24.40;99.90
24338;DHT22;12457;50.832;4.346;2023-07-20T08:29:00;24.20;99.90
24338;DHT22;12457;50.832;4.346;2023-07-20T08:31:25;23.90;99.90
24338;DHT22;12457;50.832;4.346;2023-07-20T08:33:53;23.80;99.90
24338;DHT22;12457;50.832;4.346;2023-07-20T08:36:19;24.20;99.90
24338;DHT22;12457;50.832;4.346;2023-07-20T08:38:45;24.30;99.90
24338;DHT22;12457;50.832;4.346;2023-07-20T08:41:11;24.60;99.90
24338;DHT22;12457;50.832;4.346;2023-07-20T08:43:37;24.70;99.90
24338;DHT22;12457;50.832;4.346;2023-07-20T08:46:04;24.80;99.90
24338;DHT22;12457;50.832;4.346;2023-07-20T08:48:31;24.50;99.90
24338;DHT22;12457;50.832;4.346;2023-07-20T08:50:58;24.50;99.90
24338;DHT22;12457;50.832;4.346;2023-07-20T08:53:27;24.80;99.90
24338;DHT22;12457;50.832;4.346;2023-07-20T08:55:53;24.80;99.90
24338;DHT22;12457;50.832;4.346;2023-07-20T08:58:19;24.70;99.90
24338;DHT22;12457;50.832;4.346;2023-07-20T09:00:45;24.80;99.90
24338;DHT22;12457;50.832;4.346;2023-07-20T09:03:12;24.40;99.90
24338;DHT22;12457;50.832;4.346;2023-07-20T09:05:38;24.00;99.90
24338;DHT22;12457;50.832;4.346;2023-07-20T09:08:05;24.20;99.90
24338;DHT22;12457;50.832;4.346;2023-07-20T09:10:32;24.40;99.90
24338;DHT22;12457;50.832;4.346;2023-07-20T09:12:58;24.50;99.90
24338;DHT22;12457;50.832;4.346;2023-07-20T09:15:24;24.90;99.90
24338;DHT22;12457;50.832;4.346;2023-07-20T09:17:51;24.70;98.30
24338;DHT22;12457;50.832;4.346;2023-07-20T09:20:19;24.60;98.50
24338;DHT22;12457;50.832;4.346;2023-07-20T09:22:45;24.50;98.10
24338;DHT22;12457;50.832;4.346;2023-07-20T09:25:12;24.20;98.10
24338;DHT22;12457;50.832;4.346;2023-07-20T09:27:42;24.50;99.00
24338;DHT22;12457;50.832;4.346;2023-07-20T09:30:09;24.70;98.20
24338;DHT22;12457;50.832;4.346;2023-07-20T09:32:44;24.80;97.90
24338;DHT22;12457;50.832;4.346;2023-07-20T09:35:29;24.70;98.20
24338;DHT22;12457;50.832;4.346;2023-07-20T09:37:59;24.40;98.80
24338;DHT22;12457;50.832;4.346;2023-07-20T09:40:28;24.10;99.90
24338;DHT22;12457;50.832;4.346;2023-07-20T09:42:55;24.50;99.90
24338;DHT22;12457;50.832;4.346;2023-07-20T09:45:42;24.60;99.40
24338;DHT22;12457;50.832;4.346;2023-07-20T09:48:10;24.70;98.50
24338;DHT22;12457;50.832;4.346;2023-07-20T09:50:50;24.50;98.40
24338;DHT22;12457;50.832;4.346;2023-07-20T09:53:17;24.60;98.60
24338;DHT22;12457;50.832;4.346;2023-07-20T09:55:47;24.10;98.20
24338;DHT22;12457;50.832;4.346;2023-07-20T09:58:14;23.60;99.20
24338;DHT22;12457;50.832;4.346;2023-07-20T10:00:41;23.80;99.90
24338;DHT22;12457;50.832;4.346;2023-07-20T10:03:16;24.00;99.10
24338;DHT22;12457;50.832;4.346;2023-07-20T10:05:47;24.40;98.30
24338;DHT22;12457;50.832;4.346;2023-07-20T10:08:16;24.70;97.80
24338;DHT22;12457;50.832;4.346;2023-07-20T10:10:42;25.00;96.90
24338;DHT22;12457;50.832;4.346;2023-07-20T10:13:38;25.00;96.30
24338;DHT22;12457;50.832;4.346;2023-07-20T10:16:04;24.80;96.80
24338;DHT22;12457;50.832;4.346;2023-07-20T10:19:05;24.50;96.80
24338;DHT22;12457;50.832;4.346;2023-07-20T10:21:33;24.50;97.50
24338;DHT22;12457;50.832;4.346;2023-07-20T10:24:01;24.80;96.80
24338;DHT22;12457;50.832;4.346;2023-07-20T10:26:28;25.70;96.80
24338;DHT22;12457;50.832;4.346;2023-07-20T10:28:54;25.90;94.90
24338;DHT22;12457;50.832;4.346;2023-07-20T10:31:22;26.00;94.70
24338;DHT22;12457;50.832;4.346;2023-07-20T10:33:48;26.00;93.80
24338;DHT22;12457;50.832;4.346;2023-07-20T10:36:16;26.00;92.50
24338;DHT22;12457;50.832;4.346;2023-07-20T10:38:54;25.90;92.50
24338;DHT22;12457;50.832;4.346;2023-07-20T10:41:22;25.70;92.10
24338;DHT22;12457;50.832;4.346;2023-07-20T10:44:01;25.40;92.30
24338;DHT22;12457;50.832;4.346;2023-07-20T10:49:23;26.10;91.80
24338;DHT22;12457;50.832;4.346;2023-07-20T10:51:57;26.10;91.30
24338;DHT22;12457;50.832;4.346;2023-07-20T10:56:52;26.30;90.60
24338;DHT22;12457;50.832;4.346;2023-07-20T10:59:37;26.00;89.90
24338;DHT22;12457;50.832;4.346;2023-07-20T11:02:07;25.90;90.50
24338;DHT22;12457;50.832;4.346;2023-07-20T11:04:46;25.90;90.10
24338;DHT22;12457;50.832;4.346;2023-07-20T11:07:17;26.20;88.80
24338;DHT22;12457;50.832;4.346;2023-07-20T11:09:43;26.40;87.60
24338;DHT22;12457;50.832;4.346;2023-07-20T11:14:55;26.40;85.40
24338;DHT22;12457;50.832;4.346;2023-07-20T11:17:31;26.10;83.20
24338;DHT22;12457;50.832;4.346;2023-07-20T11:19:59;25.60;87.20
24338;DHT22;12457;50.832;4.346;2023-07-20T11:22:27;25.40;89.80
24338;DHT22;12457;50.832;4.346;2023-07-20T11:24:56;26.00;87.80
24338;DHT22;12457;50.832;4.346;2023-07-20T11:27:22;26.40;85.70
24338;DHT22;12457;50.832;4.346;2023-07-20T11:29:48;26.60;83.90
24338;DHT22;12457;50.832;4.346;2023-07-20T11:32:24;27.10;84.30
24338;DHT22;12457;50.832;4.346;2023-07-20T11:34:50;27.60;80.40
24338;DHT22;12457;50.832;4.346;2023-07-20T11:37:16;26.90;79.20
24338;DHT22;12457;50.832;4.346;2023-07-20T11:39:42;26.50;82.70
24338;DHT22;12457;50.832;4.346;2023-07-20T11:42:08;26.10;82.00
24338;DHT22;12457;50.832;4.346;2023-07-20T11:44:34;25.80;83.30
24338;DHT22;12457;50.832;4.346;2023-07-20T11:47:11;25.90;82.40
24338;DHT22;12457;50.832;4.346;2023-07-20T11:49:44;26.20;84.50
24338;DHT22;12457;50.832;4.346;2023-07-20T11:52:16;26.50;83.30
24338;DHT22;12457;50.832;4.346;2023-07-20T11:54:43;26.80;82.90
24338;DHT22;12457;50.832;4.346;2023-07-20T11:57:19;27.10;80.60
24338;DHT22;12457;50.832;4.346;2023-07-20T11:59:58;27.00;80.60
24338;DHT22;12457;50.832;4.346;2023-07-20T12:02:28;26.60;80.30
24338;DHT22;12457;50.832;4.346;2023-07-20T12:05:06;26.30;81.50
24338;DHT22;12457;50.832;4.346;2023-07-20T12:07:35;26.30;81.20
24338;DHT22;12457;50.832;4.346;2023-07-20T12:12:38;25.80;83.30
24338;DHT22;12457;50.832;4.346;2023-07-20T12:15:24;26.00;83.30
24338;DHT22;12457;50.832;4.346;2023-07-20T12:17:59;26.40;83.10
24338;DHT22;12457;50.832;4.346;2023-07-20T12:20:33;26.40;83.40
24338;DHT22;12457;50.832;4.346;2023-07-20T12:23:04;26.20;82.30
24338;DHT22;12457;50.832;4.346;2023-07-20T12:25:45;26.30;81.50
24338;DHT22;12457;50.832;4.346;2023-07-20T12:28:16;26.10;81.40
24338;DHT22;12457;50.832;4.346;2023-07-20T12:30:43;26.10;82.50
24338;DHT22;12457;50.832;4.346;2023-07-20T12:33:10;26.30;82.10
24338;DHT22;12457;50.832;4.346;2023-07-20T12:35:37;26.50;81.80
24338;DHT22;12457;50.832;4.346;2023-07-20T12:38:02;26.00;81.30
24338;DHT22;12457;50.832;4.346;2023-07-20T12:40:28;25.80;82.70
24338;DHT22;12457;50.832;4.346;2023-07-20T12:42:54;25.50;83.30
24338;DHT22;12457;50.832;4.346;2023-07-20T12:45:20;25.70;83.50
24338;DHT22;12457;50.832;4.346;2023-07-20T12:47:47;25.60;84.00
24338;DHT22;12457;50.832;4.346;2023-07-20T12:50:28;25.70;83.70
24338;DHT22;12457;50.832;4.346;2023-07-20T12:52:54;25.70;82.60
24338;DHT22;12457;50.832;4.346;2023-07-20T12:55:20;25.40;83.50
24338;DHT22;12457;50.832;4.346;2023-07-20T12:57:46;25.30;84.70
24338;DHT22;12457;50.832;4.346;2023-07-20T13:00:14;25.10;85.30
24338;DHT22;12457;50.832;4.346;2023-07-20T13:02:40;25.10;85.30
24338;DHT22;12457;50.832;4.346;2023-07-20T13:05:07;25.20;84.70
24338;DHT22;12457;50.832;4.346;2023-07-20T13:07:37;25.30;84.30
24338;DHT22;12457;50.832;4.346;2023-07-20T13:10:07;25.00;84.80
24338;DHT22;12457;50.832;4.346;2023-07-20T13:12:34;24.80;86.70
24338;DHT22;12457;50.832;4.346;2023-07-20T13:15:02;24.50;87.90
24338;DHT22;12457;50.832;4.346;2023-07-20T13:17:38;24.50;89.10
24338;DHT22;12457;50.832;4.346;2023-07-20T13:20:09;24.50;89.90
24338;DHT22;12457;50.832;4.346;2023-07-20T13:22:36;24.00;91.40
24338;DHT22;12457;50.832;4.346;2023-07-20T13:25:02;23.20;94.50
24338;DHT22;12457;50.832;4.346;2023-07-20T13:27:28;22.80;95.20
24338;DHT22;12457;50.832;4.346;2023-07-20T13:29:56;22.80;95.70
24338;DHT22;12457;50.832;4.346;2023-07-20T13:32:24;23.20;94.60
24338;DHT22;12457;50.832;4.346;2023-07-20T13:34:50;23.40;94.50
24338;DHT22;12457;50.832;4.346;2023-07-20T13:37:15;23.60;93.90
24338;DHT22;12457;50.832;4.346;2023-07-20T13:39:41;23.60;94.20
24338;DHT22;12457;50.832;4.346;2023-07-20T13:42:10;23.40;94.30
24338;DHT22;12457;50.832;4.346;2023-07-20T13:44:37;23.30;94.40
24338;DHT22;12457;50.832;4.346;2023-07-20T13:47:03;23.20;94.60
24338;DHT22;12457;50.832;4.346;2023-07-20T13:49:33;22.90;95.00
24338;DHT22;12457;50.832;4.346;2023-07-20T13:51:59;22.90;95.90
24338;DHT22;12457;50.832;4.346;2023-07-20T13:54:25;22.90;96.70
24338;DHT22;12457;50.832;4.346;2023-07-20T13:56:51;22.60;98.00
24338;DHT22;12457;50.832;4.346;2023-07-20T13:59:19;22.70;97.60
24338;DHT22;12457;50.832;4.346;2023-07-20T14:01:45;22.40;97.90
24338;DHT22;12457;50.832;4.346;2023-07-20T14:04:11;22.40;97.90
24338;DHT22;12457;50.832;4.346;2023-07-20T14:06:37;22.50;98.30
24338;DHT22;12457;50.832;4.346;2023-07-20T14:09:03;22.80;97.90
24338;DHT22;12457;50.832;4.346;2023-07-20T14:11:29;22.90;97.20
24338;DHT22;12457;50.832;4.346;2023-07-20T14:13:54;23.00;97.30
24338;DHT22;12457;50.832;4.346;2023-07-20T14:16:21;23.20;96.90
24338;DHT22;12457;50.832;4.346;2023-07-20T14:18:47;23.20;97.30
24338;DHT22;12457;50.832;4.346;2023-07-20T14:21:15;23.60;96.70
24338;DHT22;12457;50.832;4.346;2023-07-20T14:23:41;23.70;97.40
24338;DHT22;12457;50.832;4.346;2023-07-20T14:26:07;23.50;98.00
24338;DHT22;12457;50.832;4.346;2023-07-20T14:28:35;23.40;98.20
24338;DHT22;12457;50.832;4.346;2023-07-20T14:31:01;23.60;98.20
24338;DHT22;12457;50.832;4.346;2023-07-20T14:33:27;23.70;97.10
24338;DHT22;12457;50.832;4.346;2023-07-20T14:35:53;23.60;96.50
24338;DHT22;12457;50.832;4.346;2023-07-20T14:38:19;23.70;95.70
24338;DHT22;12457;50.832;4.346;2023-07-20T14:40:44;23.70;96.30
24338;DHT22;12457;50.832;4.346;2023-07-20T14:43:11;24.00;96.30
24338;DHT22;12457;50.832;4.346;2023-07-20T14:45:37;24.10;95.30
24338;DHT22;12457;50.832;4.346;2023-07-20T14:48:05;24.00;95.60
24338;DHT22;12457;50.832;4.346;2023-07-20T14:50:31;24.00;95.40
24338;DHT22;12457;50.832;4.346;2023-07-20T14:52:57;24.00;95.30
24338;DHT22;12457;50.832;4.346;2023-07-20T14:55:23;24.10;95.10
24338;DHT22;12457;50.832;4.346;2023-07-20T14:57:49;24.20;94.40
24338;DHT22;12457;50.832;4.346;2023-07-20T15:00:16;24.10;94.20
24338;DHT22;12457;50.832;4.346;2023-07-20T15:02:42;23.90;94.50
24338;DHT22;12457;50.832;4.346;2023-07-20T15:05:09;24.20;94.90
24338;DHT22;12457;50.832;4.346;2023-07-20T15:07:36;24.50;94.30
24338;DHT22;12457;50.832;4.346;2023-07-20T15:10:03;24.60;93.70
24338;DHT22;12457;50.832;4.346;2023-07-20T15:12:30;24.70;93.60
24338;DHT22;12457;50.832;4.346;2023-07-20T15:15:09;24.30;93.60
24338;DHT22;12457;50.832;4.346;2023-07-20T15:17:36;24.00;93.70
24338;DHT22;12457;50.832;4.346;2023-07-20T15:20:03;23.60;94.20
24338;DHT22;12457;50.832;4.346;2023-07-20T15:22:33;23.80;94.30
24338;DHT22;12457;50.832;4.346;2023-07-20T15:24:59;23.60;94.00
24338;DHT22;12457;50.832;4.346;2023-07-20T15:27:26;23.40;94.70
24338;DHT22;12457;50.832;4.346;2023-07-20T15:29:51;23.30;94.80
24338;DHT22;12457;50.832;4.346;2023-07-20T15:32:20;23.10;95.30
24338;DHT22;12457;50.832;4.346;2023-07-20T15:34:46;23.00;95.50
24338;DHT22;12457;50.832;4.346;2023-07-20T15:37:12;23.00;95.50
24338;DHT22;12457;50.832;4.346;2023-07-20T15:39:39;22.80;96.10
24338;DHT22;12457;50.832;4.346;2023-07-20T15:42:05;22.60;98.40
24338;DHT22;12457;50.832;4.346;2023-07-20T15:44:31;22.10;99.90
24338;DHT22;12457;50.832;4.346;2023-07-20T15:46:56;21.30;99.90
24338;DHT22;12457;50.832;4.346;2023-07-20T15:49:22;20.20;99.90